sensor_id;sensor_type;location;lat;lon;timestamp;temperature;humidity
21355;DHT22;10835;50.148;19.760;2023-03-01T00:01:25;16.00;37.60
21355;DHT22;10835;50.148;19.760;2023-03-01T00:03:54;16.20;37.40
21355;DHT22;10835;50.148;19.760;2023-03-01T00:06:23;16.00;37.20
21355;DHT22;10835;50.148;19.760;2023-03-01T00:08:51;15.70;37.30
21355;DHT22;10835;50.148;19.760;2023-03-01T00:11:21;15.50;37.70
21355;DHT22;10835;50.148;19.760;2023-03-01T00:13:52;15.00;38.10
21355;DHT22;10835;50.148;19.760;2023-03-01T00:16:24;15.30;38.70
21355;DHT22;10835;50.148;19.760;2023-03-01T00:18:54;15.50;38.50
21355;DHT22;10835;50.148;19.760;2023-03-01T00:21:23;15.30;38.40
21355;DHT22;10835;50.148;19.760;2023-03-01T00:23:51;14.50;38.30
21355;DHT22;10835;50.148;19.760;2023-03-01T00:26:21;14.50;39.80
21355;DHT22;10835;50.148;19.760;2023-03-01T00:28:50;14.80;39.60
21355;DHT22;10835;50.148;19.760;2023-03-01T00:31:22;15.10;38.70
21355;DHT22;10835;50.148;19.760;2023-03-01T00:33:54;15.50;38.20
21355;DHT22;10835;50.148;19.760;2023-03-01T00:36:28;15.60;38.20
21355;DHT22;10835;50.148;19.760;2023-03-01T00:38:57;15.70;37.90
21355;DHT22;10835;50.148;19.760;2023-03-01T00:41:26;15.60;38.00
21355;DHT22;10835;50.148;19.760;2023-03-01T00:43:54;15.60;38.20
21355;DHT22;10835;50.148;19.760;2023-03-01T00:46:25;15.20;38.10
21355;DHT22;10835;50.148;19.760;2023-03-01T00:48:55;15.30;38.70
21355;DHT22;10835;50.148;19.760;2023-03-01T00:51:24;15.50;38.40
21355;DHT22;10835;50.148;19.760;2023-03-01T00:53:54;15.50;38.40
21355;DHT22;10835;50.148;19.760;2023-03-01T00:56:24;15.70;38.20
21355;DHT22;10835;50.148;19.760;2023-03-01T00:58:52;15.70;37.60
21355;DHT22;10835;50.148;19.760;2023-03-01T01:01:22;15.80;37.50
21355;DHT22;10835;50.148;19.760;2023-03-01T01:03:52;15.60;37.50
21355;DHT22;10835;50.148;19.760;2023-03-01T01:06:24;15.30;38.00
21355;DHT22;10835;50.148;19.760;2023-03-01T01:08:53;15.50;38.20
21355;DHT22;10835;50.148;19.760;2023-03-01T01:11:22;15.30;38.20
21355;DHT22;10835;50.148;19.760;2023-03-01T01:13:52;15.30;38.90
21355;DHT22;10835;50.148;19.760;2023-03-01T01:16:23;15.70;38.60
21355;DHT22;10835;50.148;19.760;2023-03-01T01:18:52;15.40;38.20
21355;DHT22;10835;50.148;19.760;2023-03-01T01:21:23;15.00;38.60
21355;DHT22;10835;50.148;19.760;2023-03-01T01:23:52;15.00;39.00
21355;DHT22;10835;50.148;19.760;2023-03-01T01:26:22;15.30;38.90
21355;DHT22;10835;50.148;19.760;2023-03-01T01:28:51;15.50;38.70
21355;DHT22;10835;50.148;19.760;2023-03-01T01:31:20;15.10;38.50
21355;DHT22;10835;50.148;19.760;2023-03-01T01:33:50;15.20;39.10
21355;DHT22;10835;50.148;19.760;2023-03-01T01:36:19;14.90;39.00
21355;DHT22;10835;50.148;19.760;2023-03-01T01:38:48;14.60;39.60
21355;DHT22;10835;50.148;19.760;2023-03-01T01:41:17;14.80;39.80
21355;DHT22;10835;50.148;19.760;2023-03-01T01:43:47;14.70;39.70
21355;DHT22;10835;50.148;19.760;2023-03-01T01:46:21;14.90;39.60
21355;DHT22;10835;50.148;19.760;2023-03-01T01:48:55;15.20;39.00
21355;DHT22;10835;50.148;19.760;2023-03-01T01:51:28;15.10;38.50
21355;DHT22;10835;50.148;19.760;2023-03-01T01:54:09;14.10;39.00
21355;DHT22;10835;50.148;19.760;2023-03-01T01:56:40;14.70;39.60
21355;DHT22;10835;50.148;19.760;2023-03-01T01:59:10;14.80;39.50
21355;DHT22;10835;50.148;19.760;2023-03-01T02:01:39;15.20;39.30
21355;DHT22;10835;50.148;19.760;2023-03-01T02:04:08;15.20;38.80
21355;DHT22;10835;50.148;19.760;2023-03-01T02:06:39;14.90;38.70
21355;DHT22;10835;50.148;19.760;2023-03-01T02:09:13;14.70;39.00
21355;DHT22;10835;50.148;19.760;2023-03-01T02:11:43;14.80;39.80
21355;DHT22;10835;50.148;19.760;2023-03-01T02:14:14;15.20;39.20
21355;DHT22;10835;50.148;19.760;2023-03-01T02:16:43;15.30;38.60
21355;DHT22;10835;50.148;19.760;2023-03-01T02:19:22;15.20;38.50
21355;DHT22;10835;50.148;19.760;2023-03-01T02:21:58;14.90;38.80
21355;DHT22;10835;50.148;19.760;2023-03-01T02:24:35;14.70;39.20
21355;DHT22;10835;50.148;19.760;2023-03-01T02:27:09;15.00;39.30
21355;DHT22;10835;50.148;19.760;2023-03-01T02:29:39;15.30;38.60
21355;DHT22;10835;50.148;19.760;2023-03-01T02:32:07;15.50;38.50
21355;DHT22;10835;50.148;19.760;2023-03-01T02:34:34;15.40;38.40
21355;DHT22;10835;50.148;19.760;2023-03-01T02:37:07;15.60;38.20
21355;DHT22;10835;50.148;19.760;2023-03-01T02:39:41;15.80;37.80
21355;DHT22;10835;50.148;19.760;2023-03-01T02:42:15;15.90;37.60
21355;DHT22;10835;50.148;19.760;2023-03-01T02:44:46;15.60;37.60
21355;DHT22;10835;50.148;19.760;2023-03-01T02:47:14;15.60;38.20
21355;DHT22;10835;50.148;19.760;2023-03-01T02:49:42;15.50;38.10
21355;DHT22;10835;50.148;19.760;2023-03-01T02:55:11;15.20;39.00
21355;DHT22;10835;50.148;19.760;2023-03-01T02:57:43;15.60;38.30
21355;DHT22;10835;50.148;19.760;2023-03-01T03:00:17;15.40;38.10
21355;DHT22;10835;50.148;19.760;2023-03-01T03:02:48;15.40;38.50
21355;DHT22;10835;50.148;19.760;2023-03-01T03:05:20;15.50;38.30
21355;DHT22;10835;50.148;19.760;2023-03-01T03:07:53;15.50;37.90
21355;DHT22;10835;50.148;19.760;2023-03-01T03:10:23;15.60;38.10
21355;DHT22;10835;50.148;19.760;2023-03-01T03:12:54;15.60;37.70
21355;DHT22;10835;50.148;19.760;2023-03-01T03:15:25;15.60;37.50
21355;DHT22;10835;50.148;19.760;2023-03-01T03:17:56;15.80;37.50
21355;DHT22;10835;50.148;19.760;2023-03-01T03:20:26;15.60;37.20
21355;DHT22;10835;50.148;19.760;2023-03-01T03:22:56;15.70;37.50
21355;DHT22;10835;50.148;19.760;2023-03-01T03:25:27;15.70;37.40
21355;DHT22;10835;50.148;19.760;2023-03-01T03:27:56;15.80;37.50
21355;DHT22;10835;50.148;19.760;2023-03-01T03:30:29;15.70;37.20
21355;DHT22;10835;50.148;19.760;2023-03-01T03:32:58;15.80;37.30
21355;DHT22;10835;50.148;19.760;2023-03-01T03:35:28;15.80;37.80
21355;DHT22;10835;50.148;19.760;2023-03-01T03:37:59;15.80;37.20
21355;DHT22;10835;50.148;19.760;2023-03-01T03:40:34;15.70;37.20
21355;DHT22;10835;50.148;19.760;2023-03-01T03:43:04;15.80;37.30
21355;DHT22;10835;50.148;19.760;2023-03-01T03:45:33;15.80;37.20
21355;DHT22;10835;50.148;19.760;2023-03-01T03:48:03;15.80;36.70
21355;DHT22;10835;50.148;19.760;2023-03-01T03:50:32;15.80;37.20
21355;DHT22;10835;50.148;19.760;2023-03-01T03:53:02;15.40;37.70
21355;DHT22;10835;50.148;19.760;2023-03-01T03:55:31;15.50;37.80
21355;DHT22;10835;50.148;19.760;2023-03-01T03:58:03;15.40;38.00
21355;DHT22;10835;50.148;19.760;2023-03-01T04:00:36;15.40;37.90
21355;DHT22;10835;50.148;19.760;2023-03-01T04:03:05;15.20;37.90
21355;DHT22;10835;50.148;19.760;2023-03-01T04:05:34;15.00;38.40
21355;DHT22;10835;50.148;19.760;2023-03-01T04:08:03;14.90;38.30
21355;DHT22;10835;50.148;19.760;2023-03-01T04:10:35;14.70;38.30
21355;DHT22;10835;50.148;19.760;2023-03-01T04:13:05;14.20;38.80
21355;DHT22;10835;50.148;19.760;2023-03-01T04:15:35;14.30;39.60
21355;DHT22;10835;50.148;19.760;2023-03-01T04:18:05;14.40;39.40
21355;DHT22;10835;50.148;19.760;2023-03-01T04:20:35;14.20;39.50
21355;DHT22;10835;50.148;19.760;2023-03-01T04:23:05;14.30;39.40
21355;DHT22;10835;50.148;19.760;2023-03-01T04:25:41;14.10;39.20
21355;DHT22;10835;50.148;19.760;2023-03-01T04:28:10;14.20;39.50
21355;DHT22;10835;50.148;19.760;2023-03-01T04:30:39;14.50;39.60
21355;DHT22;10835;50.148;19.760;2023-03-01T04:33:09;14.50;39.50
21355;DHT22;10835;50.148;19.760;2023-03-01T04:35:38;13.80;39.30
21355;DHT22;10835;50.148;19.760;2023-03-01T04:38:08;14.20;39.80
21355;DHT22;10835;50.148;19.760;2023-03-01T04:40:36;14.50;39.40
21355;DHT22;10835;50.148;19.760;2023-03-01T04:43:04;14.60;38.80
21355;DHT22;10835;50.148;19.760;2023-03-01T04:45:33;14.80;38.60
21355;DHT22;10835;50.148;19.760;2023-03-01T04:48:04;14.80;38.20
21355;DHT22;10835;50.148;19.760;2023-03-01T04:50:32;14.80;38.40
21355;DHT22;10835;50.148;19.760;2023-03-01T04:53:01;15.00;38.40
21355;DHT22;10835;50.148;19.760;2023-03-01T04:55:30;14.80;38.20
21355;DHT22;10835;50.148;19.760;2023-03-01T04:57:59;14.90;38.30
21355;DHT22;10835;50.148;19.760;2023-03-01T05:00:27;15.00;38.10
21355;DHT22;10835;50.148;19.760;2023-03-01T05:02:58;14.90;38.80
21355;DHT22;10835;50.148;19.760;2023-03-01T05:05:31;15.00;38.30
21355;DHT22;10835;50.148;19.760;2023-03-01T05:08:02;15.10;38.20
21355;DHT22;10835;50.148;19.760;2023-03-01T05:10:31;15.00;38.00
21355;DHT22;10835;50.148;19.760;2023-03-01T05:13:02;14.70;38.20
21355;DHT22;10835;50.148;19.760;2023-03-01T05:15:33;14.40;38.50
21355;DHT22;10835;50.148;19.760;2023-03-01T05:18:03;14.20;39.10
21355;DHT22;10835;50.148;19.760;2023-03-01T05:20:39;14.00;39.50
21355;DHT22;10835;50.148;19.760;2023-03-01T05:23:07;13.80;39.60
21355;DHT22;10835;50.148;19.760;2023-03-01T05:25:36;13.70;40.10
21355;DHT22;10835;50.148;19.760;2023-03-01T05:28:10;13.70;40.30
21355;DHT22;10835;50.148;19.760;2023-03-01T05:30:39;13.40;40.10
21355;DHT22;10835;50.148;19.760;2023-03-01T05:33:08;13.30;40.90
21355;DHT22;10835;50.148;19.760;2023-03-01T05:35:42;14.10;40.40
21355;DHT22;10835;50.148;19.760;2023-03-01T05:38:12;13.80;39.80
21355;DHT22;10835;50.148;19.760;2023-03-01T05:40:41;14.10;40.40
21355;DHT22;10835;50.148;19.760;2023-03-01T05:43:11;13.60;40.20
21355;DHT22;10835;50.148;19.760;2023-03-01T05:45:40;13.80;40.70
21355;DHT22;10835;50.148;19.760;2023-03-01T05:48:10;13.80;41.00
21355;DHT22;10835;50.148;19.760;2023-03-01T05:50:40;14.10;40.50
21355;DHT22;10835;50.148;19.760;2023-03-01T05:53:12;14.20;40.30
21355;DHT22;10835;50.148;19.760;2023-03-01T05:55:42;14.60;40.10
21355;DHT22;10835;50.148;19.760;2023-03-01T05:58:14;14.80;39.80
21355;DHT22;10835;50.148;19.760;2023-03-01T06:00:44;14.30;39.20
21355;DHT22;10835;50.148;19.760;2023-03-01T06:03:15;14.20;40.30
21355;DHT22;10835;50.148;19.760;2023-03-01T06:05:44;14.90;39.50
21355;DHT22;10835;50.148;19.760;2023-03-01T06:08:14;15.20;38.90
21355;DHT22;10835;50.148;19.760;2023-03-01T06:10:42;15.40;38.60
21355;DHT22;10835;50.148;19.760;2023-03-01T06:13:10;15.70;38.70
21355;DHT22;10835;50.148;19.760;2023-03-01T06:15:38;15.80;38.30
21355;DHT22;10835;50.148;19.760;2023-03-01T06:18:07;16.00;38.40
21355;DHT22;10835;50.148;19.760;2023-03-01T06:20:35;15.70;38.00
21355;DHT22;10835;50.148;19.760;2023-03-01T06:23:03;15.30;38.70
21355;DHT22;10835;50.148;19.760;2023-03-01T06:25:33;15.70;38.80
21355;DHT22;10835;50.148;19.760;2023-03-01T06:28:01;15.90;38.50
21355;DHT22;10835;50.148;19.760;2023-03-01T06:30:31;16.00;39.10
21355;DHT22;10835;50.148;19.760;2023-03-01T06:32:59;16.30;38.10
21355;DHT22;10835;50.148;19.760;2023-03-01T06:35:28;16.50;37.90
21355;DHT22;10835;50.148;19.760;2023-03-01T06:37:59;16.70;37.60
21355;DHT22;10835;50.148;19.760;2023-03-01T06:40:27;17.00;37.30
21355;DHT22;10835;50.148;19.760;2023-03-01T06:42:58;17.20;37.10
21355;DHT22;10835;50.148;19.760;2023-03-01T06:45:26;17.30;37.10
21355;DHT22;10835;50.148;19.760;2023-03-01T06:48:01;17.40;36.90
21355;DHT22;10835;50.148;19.760;2023-03-01T06:50:30;17.40;37.40
21355;DHT22;10835;50.148;19.760;2023-03-01T06:52:59;17.50;37.60
21355;DHT22;10835;50.148;19.760;2023-03-01T06:55:27;17.50;37.60
21355;DHT22;10835;50.148;19.760;2023-03-01T06:57:57;17.60;37.60
21355;DHT22;10835;50.148;19.760;2023-03-01T07:00:26;17.70;37.30
21355;DHT22;10835;50.148;19.760;2023-03-01T07:02:56;17.80;37.10
21355;DHT22;10835;50.148;19.760;2023-03-01T07:05:25;17.90;37.10
21355;DHT22;10835;50.148;19.760;2023-03-01T07:07:54;17.80;37.00
21355;DHT22;10835;50.148;19.760;2023-03-01T07:10:23;17.90;37.50
21355;DHT22;10835;50.148;19.760;2023-03-01T07:12:54;17.50;37.40
21355;DHT22;10835;50.148;19.760;2023-03-01T07:15:24;17.70;37.70
21355;DHT22;10835;50.148;19.760;2023-03-01T07:17:53;18.00;36.40
21355;DHT22;10835;50.148;19.760;2023-03-01T07:20:21;18.10;36.90
21355;DHT22;10835;50.148;19.760;2023-03-01T07:22:52;17.70;36.70
21355;DHT22;10835;50.148;19.760;2023-03-01T07:25:20;18.00;37.20
21355;DHT22;10835;50.148;19.760;2023-03-01T07:27:49;17.50;37.20
21355;DHT22;10835;50.148;19.760;2023-03-01T07:30:19;16.50;38.20
21355;DHT22;10835;50.148;19.760;2023-03-01T07:32:49;17.10;38.20
21355;DHT22;10835;50.148;19.760;2023-03-01T07:35:20;17.20;38.70
21355;DHT22;10835;50.148;19.760;2023-03-01T07:37:49;17.40;37.60
21355;DHT22;10835;50.148;19.760;2023-03-01T07:40:17;17.20;37.70
21355;DHT22;10835;50.148;19.760;2023-03-01T07:42:46;17.50;38.00
21355;DHT22;10835;50.148;19.760;2023-03-01T07:45:14;16.90;37.20
21355;DHT22;10835;50.148;19.760;2023-03-01T07:47:42;17.10;37.50
21355;DHT22;10835;50.148;19.760;2023-03-01T07:50:12;17.60;38.30
21355;DHT22;10835;50.148;19.760;2023-03-01T07:52:40;18.00;37.70
21355;DHT22;10835;50.148;19.760;2023-03-01T07:55:09;18.30;35.30
21355;DHT22;10835;50.148;19.760;2023-03-01T07:57:37;18.10;35.30
21355;DHT22;10835;50.148;19.760;2023-03-01T08:00:07;18.30;36.30
21355;DHT22;10835;50.148;19.760;2023-03-01T08:02:39;18.50;34.00
21355;DHT22;10835;50.148;19.760;2023-03-01T08:05:09;18.80;34.10
21355;DHT22;10835;50.148;19.760;2023-03-01T08:07:39;18.90;33.80
21355;DHT22;10835;50.148;19.760;2023-03-01T08:10:08;19.00;33.60
21355;DHT22;10835;50.148;19.760;2023-03-01T08:12:36;19.10;33.70
21355;DHT22;10835;50.148;19.760;2023-03-01T08:15:06;19.10;33.60
21355;DHT22;10835;50.148;19.760;2023-03-01T08:17:34;19.40;33.60
21355;DHT22;10835;50.148;19.760;2023-03-01T08:20:02;18.10;34.90
21355;DHT22;10835;50.148;19.760;2023-03-01T08:22:33;17.50;35.50
21355;DHT22;10835;50.148;19.760;2023-03-01T08:25:04;18.00;36.50
21355;DHT22;10835;50.148;19.760;2023-03-01T08:27:33;18.20;35.70
21355;DHT22;10835;50.148;19.760;2023-03-01T08:30:01;19.00;35.40
21355;DHT22;10835;50.148;19.760;2023-03-01T08:32:29;19.20;35.60
21355;DHT22;10835;50.148;19.760;2023-03-01T08:34:58;18.80;35.90
21355;DHT22;10835;50.148;19.760;2023-03-01T08:37:26;18.50;36.40
21355;DHT22;10835;50.148;19.760;2023-03-01T08:39:57;19.00;36.70
21355;DHT22;10835;50.148;19.760;2023-03-01T08:42:27;18.50;36.60
21355;DHT22;10835;50.148;19.760;2023-03-01T08:44:55;19.20;36.10
21355;DHT22;10835;50.148;19.760;2023-03-01T08:47:23;19.00;35.70
21355;DHT22;10835;50.148;19.760;2023-03-01T08:49:53;19.00;36.00
21355;DHT22;10835;50.148;19.760;2023-03-01T08:52:21;18.80;35.10
21355;DHT22;10835;50.148;19.760;2023-03-01T08:54:51;19.00;35.10
21355;DHT22;10835;50.148;19.760;2023-03-01T08:57:20;19.70;33.90
21355;DHT22;10835;50.148;19.760;2023-03-01T08:59:49;20.00;33.70
21355;DHT22;10835;50.148;19.760;2023-03-01T09:02:18;20.30;33.30
21355;DHT22;10835;50.148;19.760;2023-03-01T09:04:47;20.00;33.20
21355;DHT22;10835;50.148;19.760;2023-03-01T09:07:15;19.70;34.50
21355;DHT22;10835;50.148;19.760;2023-03-01T09:09:43;20.10;33.20
21355;DHT22;10835;50.148;19.760;2023-03-01T09:12:12;20.30;32.80
21355;DHT22;10835;50.148;19.760;2023-03-01T09:14:40;20.30;33.30
21355;DHT22;10835;50.148;19.760;2023-03-01T09:17:10;20.20;32.90
21355;DHT22;10835;50.148;19.760;2023-03-01T09:19:38;20.40;32.70
21355;DHT22;10835;50.148;19.760;2023-03-01T09:22:06;19.80;33.10
21355;DHT22;10835;50.148;19.760;2023-03-01T09:24:34;19.30;33.30
21355;DHT22;10835;50.148;19.760;2023-03-01T09:27:03;19.40;34.20
21355;DHT22;10835;50.148;19.760;2023-03-01T09:29:35;18.70;34.50
21355;DHT22;10835;50.148;19.760;2023-03-01T09:32:04;19.50;34.30
21355;DHT22;10835;50.148;19.760;2023-03-01T09:34:35;20.00;32.90
21355;DHT22;10835;50.148;19.760;2023-03-01T09:37:26;19.80;33.80
21355;DHT22;10835;50.148;19.760;2023-03-01T09:39:54;20.20;33.60
21355;DHT22;10835;50.148;19.760;2023-03-01T09:42:22;19.80;34.00
21355;DHT22;10835;50.148;19.760;2023-03-01T09:44:53;19.40;33.50
21355;DHT22;10835;50.148;19.760;2023-03-01T09:47:26;19.90;33.70
21355;DHT22;10835;50.148;19.760;2023-03-01T09:50:03;20.40;33.10
21355;DHT22;10835;50.148;19.760;2023-03-01T09:52:37;20.60;32.70
21355;DHT22;10835;50.148;19.760;2023-03-01T09:55:11;20.90;32.90
21355;DHT22;10835;50.148;19.760;2023-03-01T09:57:46;21.20;31.60
21355;DHT22;10835;50.148;19.760;2023-03-01T10:00:31;20.80;31.50
21355;DHT22;10835;50.148;19.760;2023-03-01T10:03:08;20.70;32.20
21355;DHT22;10835;50.148;19.760;2023-03-01T10:05:49;20.60;32.40
21355;DHT22;10835;50.148;19.760;2023-03-01T10:08:27;21.10;31.50
21355;DHT22;10835;50.148;19.760;2023-03-01T10:10:58;21.30;31.50
21355;DHT22;10835;50.148;19.760;2023-03-01T10:13:33;21.50;30.80
21355;DHT22;10835;50.148;19.760;2023-03-01T10:16:09;21.20;31.00
21355;DHT22;10835;50.148;19.760;2023-03-01T10:18:40;21.30;30.80
21355;DHT22;10835;50.148;19.760;2023-03-01T10:21:14;21.50;30.20
21355;DHT22;10835;50.148;19.760;2023-03-01T10:23:44;21.40;30.60
21355;DHT22;10835;50.148;19.760;2023-03-01T10:26:32;21.60;30.00
21355;DHT22;10835;50.148;19.760;2023-03-01T10:29:08;20.60;30.40
21355;DHT22;10835;50.148;19.760;2023-03-01T10:31:39;21.00;31.20
21355;DHT22;10835;50.148;19.760;2023-03-01T10:34:15;21.30;31.20
21355;DHT22;10835;50.148;19.760;2023-03-01T10:36:48;21.10;31.20
21355;DHT22;10835;50.148;19.760;2023-03-01T10:39:19;21.00;31.80
21355;DHT22;10835;50.148;19.760;2023-03-01T10:41:58;21.30;31.20
21355;DHT22;10835;50.148;19.760;2023-03-01T10:44:42;21.20;31.00
21355;DHT22;10835;50.148;19.760;2023-03-01T10:47:14;21.70;30.20
21355;DHT22;10835;50.148;19.760;2023-03-01T10:49:58;22.00;29.50
21355;DHT22;10835;50.148;19.760;2023-03-01T10:52:38;21.30;30.40
21355;DHT22;10835;50.148;19.760;2023-03-01T10:55:24;22.00;31.10
21355;DHT22;10835;50.148;19.760;2023-03-01T10:58:08;22.00;30.00
21355;DHT22;10835;50.148;19.760;2023-03-01T11:00:47;22.00;30.00
21355;DHT22;10835;50.148;19.760;2023-03-01T11:03:19;22.00;30.00
21355;DHT22;10835;50.148;19.760;2023-03-01T11:05:55;21.60;30.50
21355;DHT22;10835;50.148;19.760;2023-03-01T11:08:37;21.80;30.60
21355;DHT22;10835;50.148;19.760;2023-03-01T11:11:18;21.80;30.80
21355;DHT22;10835;50.148;19.760;2023-03-01T11:13:58;22.00;30.00
21355;DHT22;10835;50.148;19.760;2023-03-01T11:16:34;21.70;29.70
21355;DHT22;10835;50.148;19.760;2023-03-01T11:19:20;21.20;30.00
21355;DHT22;10835;50.148;19.760;2023-03-01T11:21:59;21.10;30.00
21355;DHT22;10835;50.148;19.760;2023-03-01T11:24:37;20.60;30.20
21355;DHT22;10835;50.148;19.760;2023-03-01T11:27:16;20.50;31.40
21355;DHT22;10835;50.148;19.760;2023-03-01T11:29:46;21.10;30.70
21355;DHT22;10835;50.148;19.760;2023-03-01T11:32:19;21.20;31.10
21355;DHT22;10835;50.148;19.760;2023-03-01T11:34:54;21.40;30.50
21355;DHT22;10835;50.148;19.760;2023-03-01T11:37:32;21.70;29.70
21355;DHT22;10835;50.148;19.760;2023-03-01T11:40:12;21.80;29.80
21355;DHT22;10835;50.148;19.760;2023-03-01T11:42:52;21.40;29.90
21355;DHT22;10835;50.148;19.760;2023-03-01T11:45:24;21.60;29.70
21355;DHT22;10835;50.148;19.760;2023-03-01T11:48:02;21.10;30.00
21355;DHT22;10835;50.148;19.760;2023-03-01T11:50:38;21.40;30.10
21355;DHT22;10835;50.148;19.760;2023-03-01T11:53:28;21.60;29.40
21355;DHT22;10835;50.148;19.760;2023-03-01T11:56:08;21.70;29.10
21355;DHT22;10835;50.148;19.760;2023-03-01T11:58:50;21.30;29.90
21355;DHT22;10835;50.148;19.760;2023-03-01T12:01:32;21.30;30.10
21355;DHT22;10835;50.148;19.760;2023-03-01T12:04:18;21.90;29.70
21355;DHT22;10835;50.148;19.760;2023-03-01T12:06:56;22.00;29.20
21355;DHT22;10835;50.148;19.760;2023-03-01T12:09:38;21.50;29.70
21355;DHT22;10835;50.148;19.760;2023-03-01T12:12:27;22.10;29.00
21355;DHT22;10835;50.148;19.760;2023-03-01T12:18:16;22.00;29.40
21355;DHT22;10835;50.148;19.760;2023-03-01T12:20:54;21.80;29.60
21355;DHT22;10835;50.148;19.760;2023-03-01T12:26:28;22.00;29.30
21355;DHT22;10835;50.148;19.760;2023-03-01T12:29:11;22.10;29.10
21355;DHT22;10835;50.148;19.760;2023-03-01T12:32:10;22.00;28.90
21355;DHT22;10835;50.148;19.760;2023-03-01T12:37:51;22.40;28.70
21355;DHT22;10835;50.148;19.760;2023-03-01T12:40:49;22.20;28.40
21355;DHT22;10835;50.148;19.760;2023-03-01T12:43:28;22.30;28.00
21355;DHT22;10835;50.148;19.760;2023-03-01T12:46:10;22.10;28.10
21355;DHT22;10835;50.148;19.760;2023-03-01T12:48:51;22.00;28.50
21355;DHT22;10835;50.148;19.760;2023-03-01T12:51:26;21.90;28.50
21355;DHT22;10835;50.148;19.760;2023-03-01T12:53:57;21.50;28.90
21355;DHT22;10835;50.148;19.760;2023-03-01T12:56:30;21.40;28.30
21355;DHT22;10835;50.148;19.760;2023-03-01T12:59:03;21.50;28.20
21355;DHT22;10835;50.148;19.760;2023-03-01T13:01:41;21.40;28.50
21355;DHT22;10835;50.148;19.760;2023-03-01T13:04:21;21.50;28.60
21355;DHT22;10835;50.148;19.760;2023-03-01T13:07:05;21.50;28.60
21355;DHT22;10835;50.148;19.760;2023-03-01T13:09:40;21.20;28.30
21355;DHT22;10835;50.148;19.760;2023-03-01T13:12:48;21.00;28.70
21355;DHT22;10835;50.148;19.760;2023-03-01T13:15:28;21.10;28.50
21355;DHT22;10835;50.148;19.760;2023-03-01T13:18:01;21.20;28.30
21355;DHT22;10835;50.148;19.760;2023-03-01T13:20:45;21.30;27.70
21355;DHT22;10835;50.148;19.760;2023-03-01T13:23:26;21.50;27.10
21355;DHT22;10835;50.148;19.760;2023-03-01T13:26:07;21.40;27.50
21355;DHT22;10835;50.148;19.760;2023-03-01T13:28:49;20.90;27.70
21355;DHT22;10835;50.148;19.760;2023-03-01T13:34:47;20.60;28.00
21355;DHT22;10835;50.148;19.760;2023-03-01T13:37:21;20.80;26.80
21355;DHT22;10835;50.148;19.760;2023-03-01T13:39:53;20.20;27.00
21355;DHT22;10835;50.148;19.760;2023-03-01T13:42:41;20.10;27.30
21355;DHT22;10835;50.148;19.760;2023-03-01T13:45:34;20.20;27.30
21355;DHT22;10835;50.148;19.760;2023-03-01T13:48:10;20.00;27.50
21355;DHT22;10835;50.148;19.760;2023-03-01T13:50:47;20.10;28.30
21355;DHT22;10835;50.148;19.760;2023-03-01T13:53:18;20.20;27.90
21355;DHT22;10835;50.148;19.760;2023-03-01T13:55:48;20.40;27.50
21355;DHT22;10835;50.148;19.760;2023-03-01T13:58:23;20.80;27.30
21355;DHT22;10835;50.148;19.760;2023-03-01T14:00:57;20.80;26.90
21355;DHT22;10835;50.148;19.760;2023-03-01T14:03:26;20.40;27.40
21355;DHT22;10835;50.148;19.760;2023-03-01T14:06:05;20.20;27.70
21355;DHT22;10835;50.148;19.760;2023-03-01T14:08:43;20.10;27.70
21355;DHT22;10835;50.148;19.760;2023-03-01T14:14:32;20.60;27.30
21355;DHT22;10835;50.148;19.760;2023-03-01T14:20:14;20.80;26.80
21355;DHT22;10835;50.148;19.760;2023-03-01T14:22:49;21.10;26.90
21355;DHT22;10835;50.148;19.760;2023-03-01T14:25:27;21.40;27.10
21355;DHT22;10835;50.148;19.760;2023-03-01T14:28:13;21.50;26.70
21355;DHT22;10835;50.148;19.760;2023-03-01T14:30:44;21.00;26.90
21355;DHT22;10835;50.148;19.760;2023-03-01T14:33:23;21.10;26.70
21355;DHT22;10835;50.148;19.760;2023-03-01T14:35:54;21.20;27.10
21355;DHT22;10835;50.148;19.760;2023-03-01T14:38:31;21.30;27.10
21355;DHT22;10835;50.148;19.760;2023-03-01T14:41:03;21.40;27.30
21355;DHT22;10835;50.148;19.760;2023-03-01T14:43:33;21.60;27.20
21355;DHT22;10835;50.148;19.760;2023-03-01T14:46:02;21.90;26.80
21355;DHT22;10835;50.148;19.760;2023-03-01T14:48:32;21.80;26.30
21355;DHT22;10835;50.148;19.760;2023-03-01T14:51:00;21.70;26.10
21355;DHT22;10835;50.148;19.760;2023-03-01T14:53:30;21.80;25.90
21355;DHT22;10835;50.148;19.760;2023-03-01T14:56:13;21.90;26.00
21355;DHT22;10835;50.148;19.760;2023-03-01T14:58:43;22.20;26.00
21355;DHT22;10835;50.148;19.760;2023-03-01T15:01:14;22.30;26.10
21355;DHT22;10835;50.148;19.760;2023-03-01T15:03:45;22.00;26.20
21355;DHT22;10835;50.148;19.760;2023-03-01T15:06:16;21.80;26.50
21355;DHT22;10835;50.148;19.760;2023-03-01T15:08:50;21.60;26.70
21355;DHT22;10835;50.148;19.760;2023-03-01T15:11:22;21.30;26.80
21355;DHT22;10835;50.148;19.760;2023-03-01T15:13:52;21.10;27.20
21355;DHT22;10835;50.148;19.760;2023-03-01T15:16:23;21.20;27.80
21355;DHT22;10835;50.148;19.760;2023-03-01T15:18:54;21.10;27.30
21355;DHT22;10835;50.148;19.760;2023-03-01T15:21:24;21.00;27.50
21355;DHT22;10835;50.148;19.760;2023-03-01T15:23:59;20.90;27.50
21355;DHT22;10835;50.148;19.760;2023-03-01T15:26:30;20.80;27.50
21355;DHT22;10835;50.148;19.760;2023-03-01T15:29:00;21.20;27.90
21355;DHT22;10835;50.148;19.760;2023-03-01T15:31:37;21.30;27.30
21355;DHT22;10835;50.148;19.760;2023-03-01T15:34:21;21.50;27.40
21355;DHT22;10835;50.148;19.760;2023-03-01T15:36:51;21.50;27.30
21355;DHT22;10835;50.148;19.760;2023-03-01T15:39:38;21.50;27.90
21355;DHT22;10835;50.148;19.760;2023-03-01T15:42:09;21.30;27.30
21355;DHT22;10835;50.148;19.760;2023-03-01T15:44:40;21.10;27.50
21355;DHT22;10835;50.148;19.760;2023-03-01T15:47:30;20.80;27.60
21355;DHT22;10835;50.148;19.760;2023-03-01T15:50:00;20.60;28.10
21355;DHT22;10835;50.148;19.760;2023-03-01T15:52:34;20.90;28.70
21355;DHT22;10835;50.148;19.760;2023-03-01T15:55:15;21.30;28.60
21355;DHT22;10835;50.148;19.760;2023-03-01T15:57:44;21.50;28.40
21355;DHT22;10835;50.148;19.760;2023-03-01T16:00:13;21.50;28.50
21355;DHT22;10835;50.148;19.760;2023-03-01T16:02:43;21.60;28.60
21355;DHT22;10835;50.148;19.760;2023-03-01T16:05:19;21.60;29.20
21355;DHT22;10835;50.148;19.760;2023-03-01T16:07:48;21.50;29.00
21355;DHT22;10835;50.148;19.760;2023-03-01T16:10:18;21.00;28.90